Marina Lobra — IXVN — position and weather

sailwx.info

Track history (hours):
 
Tides and Currents Weather Stations Pressure Air Temp Water Temp Dewpoint Dewpoint Depression Visibility Wind Speed Wind Dir Waves Ship Positions

Marina Lobra

Last reported at 2017-May-18 14:33 UTC. Time now 2017-May-26 13:22 UTC.
Position N 40°50' E 014°16'.

Length 49 m; draft 2.4 m.

Type: Ship (hazmat cat C). MMSI: 247188300.

Date/timePositionNaut miles runAvg speedWind from/ knotsBaromVisibWave heightAir tempDewpointWater temp
2017-May-18 14:33N 40°50' E 014°16'1 1.6
2017-May-18 13:58N 40°50' E 014°17'0 0.0
2017-May-18 13:30N 40°50' E 014°17'0 0.0
2017-May-18 12:26N 40°50' E 014°17'  
2017-May-15 11:17N 40°51' E 014°16'1 3.1
2017-May-15 11:00N 40°50' E 014°17'1 0.1
2017-May-14 17:36N 40°51' E 014°16'0 0.1
2017-May-14 17:30N 40°51' E 014°16'0 0.0
2017-May-14 15:37N 40°51' E 014°16'0 0.0
2017-May-14 15:30N 40°51' E 014°16'0 0.0
2017-May-14 15:01N 40°51' E 014°16'0 0.0
2017-May-14 14:31N 40°51' E 014°16'0 0.0
2017-May-14 13:11N 40°51' E 014°16'0 0.0
2017-May-14 12:52N 40°51' E 014°16'0 0.0
2017-May-14 12:31N 40°51' E 014°16'0 0.0
2017-May-14 12:01N 40°51' E 014°16'0 0.0
2017-May-14 11:31N 40°51' E 014°16'0 0.0
2017-May-14 11:00N 40°51' E 014°16'0 0.0
2017-May-14 10:30N 40°51' E 014°16'0 0.0
2017-May-14 10:00N 40°51' E 014°16'0 0.0
2017-May-13 18:57N 40°51' E 014°16'0 0.0
2017-May-13 02:32N 40°51' E 014°16'0 0.1
2017-May-13 02:28N 40°51' E 014°16'0 0.0
2017-May-13 02:01N 40°51' E 014°16'0 0.0
2017-May-13 01:30N 40°51' E 014°16'0 0.0
2017-May-13 01:00N 40°51' E 014°16'0 0.0
2017-May-12 22:47N 40°51' E 014°16'0 0.0
2017-May-12 22:30N 40°51' E 014°16'0 0.0
2017-May-12 22:00N 40°51' E 014°16'0 0.0
2017-May-12 17:36N 40°51' E 014°16'0 0.0
2017-May-12 17:27N 40°51' E 014°16'0 0.8
2017-May-12 17:00N 40°50' E 014°16'0 0.4
2017-May-12 16:24N 40°51' E 014°16'0 0.0
2017-May-12 16:01N 40°51' E 014°16'17 0.4
2017-May-10 19:17N 40°33' E 014°14'3 4.7
2017-May-10 18:44N 40°36' E 014°16'2 5.8
2017-May-10 18:22N 40°38' E 014°16'6 5.8
2017-May-10 17:23N 40°44' E 014°17'2 5.7
2017-May-10 16:58N 40°46' E 014°17'4 5.7
2017-May-10 16:20N 40°50' E 014°17'  
Track history (hours):
 
Tides and Currents Weather Stations Pressure Air Temp Water Temp Dewpoint Dewpoint Depression Visibility Wind Speed Wind Dir Waves Ship Positions

Marina Lobra

Last reported at 2017-May-18 14:33 UTC. Time now 2017-May-26 13:22 UTC.
Position N 40°50' E 014°16'.

Length 49 m; draft 2.4 m.

Type: Ship (hazmat cat C). MMSI: 247188300.

Date/timePositionNaut miles runAvg speedWind from/ knotsBaromVisibWave heightAir tempDewpointWater temp
2017-May-18 14:33N 40°50' E 014°16'1 1.6
2017-May-18 13:58N 40°50' E 014°17'0 0.0
2017-May-18 13:30N 40°50' E 014°17'0 0.0
2017-May-18 12:26N 40°50' E 014°17'  
2017-May-15 11:17N 40°51' E 014°16'1 3.1
2017-May-15 11:00N 40°50' E 014°17'1 0.1
2017-May-14 17:36N 40°51' E 014°16'0 0.1
2017-May-14 17:30N 40°51' E 014°16'0 0.0
2017-May-14 15:37N 40°51' E 014°16'0 0.0
2017-May-14 15:30N 40°51' E 014°16'0 0.0
2017-May-14 15:01N 40°51' E 014°16'0 0.0
2017-May-14 14:31N 40°51' E 014°16'0 0.0
2017-May-14 13:11N 40°51' E 014°16'0 0.0
2017-May-14 12:52N 40°51' E 014°16'0 0.0
2017-May-14 12:31N 40°51' E 014°16'0 0.0
2017-May-14 12:01N 40°51' E 014°16'0 0.0
2017-May-14 11:31N 40°51' E 014°16'0 0.0
2017-May-14 11:00N 40°51' E 014°16'0 0.0
2017-May-14 10:30N 40°51' E 014°16'0 0.0
2017-May-14 10:00N 40°51' E 014°16'0 0.0
2017-May-13 18:57N 40°51' E 014°16'0 0.0
2017-May-13 02:32N 40°51' E 014°16'0 0.1
2017-May-13 02:28N 40°51' E 014°16'0 0.0
2017-May-13 02:01N 40°51' E 014°16'0 0.0
2017-May-13 01:30N 40°51' E 014°16'0 0.0
2017-May-13 01:00N 40°51' E 014°16'0 0.0
2017-May-12 22:47N 40°51' E 014°16'0 0.0
2017-May-12 22:30N 40°51' E 014°16'0 0.0
2017-May-12 22:00N 40°51' E 014°16'0 0.0
2017-May-12 17:36N 40°51' E 014°16'0 0.0
2017-May-12 17:27N 40°51' E 014°16'0 0.8
2017-May-12 17:00N 40°50' E 014°16'0 0.4
2017-May-12 16:24N 40°51' E 014°16'0 0.0
2017-May-12 16:01N 40°51' E 014°16'17 0.4
2017-May-10 19:17N 40°33' E 014°14'3 4.7
2017-May-10 18:44N 40°36' E 014°16'2 5.8
2017-May-10 18:22N 40°38' E 014°16'6 5.8
2017-May-10 17:23N 40°44' E 014°17'2 5.7
2017-May-10 16:58N 40°46' E 014°17'4 5.7
2017-May-10 16:20N 40°50' E 014°17'  

Dump ship's entire track history